Time;durP1;ratioP1;P1;durP2;ratioP2;P2;SDS_P1;SDS_P2;PMS_P1;PMS_P2;Temp;Humidity;BMP_temperature;BMP_pressure;BME280_temperature;BME280_humidity;BME280_pressure;Samples;Min_cycle;Max_cycle;Signal;HPM_P1;HPM_P2
2022/06/20 00:02:21;;;;;;;1999.90;999.90;;;19.40;99.90;;;;;;4955766;29;20038;-74
2022/06/20 00:04:49;;;;;;;1999.90;999.90;;;19.40;99.90;;;;;;4944146;29;20030;-76
2022/06/20 00:07:15;;;;;;;1999.90;999.90;;;19.40;99.90;;;;;;4955964;29;20024;-74
2022/06/20 00:09:41;;;;;;;1999.90;999.90;;;19.40;99.90;;;;;;4956205;29;20023;-80
2022/06/20 00:12:08;;;;;;;1999.90;999.90;;;19.40;99.90;;;;;;4955771;29;20077;-81
2022/06/20 00:14:33;;;;;;;1999.90;999.90;;;19.40;99.90;;;;;;4956378;29;20372;-73
2022/06/20 00:17:02;;;;;;;1999.90;999.90;;;19.30;99.90;;;;;;4955898;29;20101;-74
2022/06/20 00:19:28;;;;;;;1999.90;999.90;;;19.40;99.90;;;;;;4937871;29;20027;-74
2022/06/20 00:21:54;;;;;;;1999.90;999.90;;;19.40;99.90;;;;;;4955707;29;20046;-79
2022/06/20 00:24:19;;;;;;;1999.90;999.90;;;19.40;99.90;;;;;;4956043;29;20117;-79
2022/06/20 00:26:45;;;;;;;1999.90;999.90;;;19.30;99.90;;;;;;4954360;29;20484;-79
2022/06/20 00:29:11;;;;;;;1999.90;999.90;;;19.40;99.90;;;;;;4955889;29;20070;-74
2022/06/20 00:31:37;;;;;;;1999.90;999.90;;;19.40;99.90;;;;;;4955629;29;20550;-78
2022/06/20 00:34:03;;;;;;;1999.90;999.90;;;19.40;99.90;;;;;;4955482;29;20447;-79
2022/06/20 00:36:29;;;;;;;1999.90;999.90;;;19.40;99.90;;;;;;4938500;29;20035;-78
2022/06/20 00:38:56;;;;;;;1999.90;999.90;;;19.40;99.90;;;;;;4955689;29;20023;-74
2022/06/20 00:41:29;;;;;;;1999.90;999.90;;;19.40;99.90;;;;;;4938301;29;20034;-74
2022/06/20 00:43:56;;;;;;;1999.90;999.90;;;19.50;99.90;;;;;;4938095;29;20027;-74
2022/06/20 00:46:30;;;;;;;1999.90;999.90;;;19.40;99.90;;;;;;4954142;29;20023;-74
2022/06/20 00:49:08;;;;;;;1999.90;999.90;;;19.50;99.90;;;;;;4937382;29;20061;-79
2022/06/20 00:51:39;;;;;;;1999.90;999.90;;;19.50;99.90;;;;;;4955252;29;20027;-74
2022/06/20 00:54:14;;;;;;;1999.90;999.90;;;19.50;99.90;;;;;;4955433;29;20409;-74
2022/06/20 00:56:50;;;;;;;1999.90;999.90;;;19.60;99.90;;;;;;4955625;29;20391;-79
2022/06/20 00:59:38;;;;;;;1999.90;999.90;;;19.60;99.90;;;;;;4954800;29;20427;-80
2022/06/20 01:02:06;;;;;;;1999.90;999.90;;;19.50;99.90;;;;;;4937535;29;20031;-74
2022/06/20 01:04:41;;;;;;;1999.90;999.90;;;19.50;99.90;;;;;;4955157;29;20114;-80
2022/06/20 01:07:12;;;;;;;1999.90;999.90;;;19.50;99.90;;;;;;4954935;29;20023;-74
2022/06/20 01:09:42;;;;;;;1999.90;999.90;;;19.50;99.90;;;;;;4955150;29;20019;-74
2022/06/20 01:12:13;;;;;;;1999.90;999.90;;;19.50;99.90;;;;;;4960345;28;20082;-74
2022/06/20 01:14:39;;;;;;;1999.90;999.90;;;19.50;99.90;;;;;;4937272;29;20123;-80
2022/06/20 01:17:27;;;;;;;1999.90;999.90;;;19.50;99.90;;;;;;4954625;29;20538;-74
2022/06/20 01:19:58;;;;;;;1999.90;999.90;;;19.50;99.90;;;;;;4927433;29;20521;-73
2022/06/20 01:22:29;;;;;;;1999.90;999.90;;;19.60;99.90;;;;;;4954674;29;20461;-74
2022/06/20 01:25:11;;;;;;;1999.90;999.90;;;19.60;99.90;;;;;;4954820;29;20101;-79
2022/06/20 01:27:42;;;;;;;1999.90;999.90;;;19.70;99.90;;;;;;4943209;29;20035;-74
2022/06/20 01:30:09;;;;;;;1999.90;999.90;;;19.60;99.90;;;;;;4954150;28;20110;-74
2022/06/20 01:32:35;;;;;;;1999.90;999.90;;;19.70;99.90;;;;;;4954473;29;20102;-73
2022/06/20 01:35:05;;;;;;;1999.90;999.90;;;19.70;99.90;;;;;;4954924;29;20429;-79
2022/06/20 01:37:34;;;;;;;1999.90;999.90;;;19.70;99.90;;;;;;4954236;29;20028;-74
2022/06/20 01:40:06;;;;;;;1999.90;999.90;;;19.70;99.90;;;;;;4954719;29;20015;-79
2022/06/20 01:42:33;;;;;;;1999.90;999.90;;;19.70;99.90;;;;;;4954971;29;20118;-79
2022/06/20 01:45:04;;;;;;;1999.90;999.90;;;19.70;99.90;;;;;;4954451;29;20063;-79
2022/06/20 01:47:32;;;;;;;1999.90;999.90;;;19.70;99.90;;;;;;4954462;29;20031;-74
2022/06/20 01:50:04;;;;;;;1999.90;999.90;;;19.70;99.90;;;;;;4953664;29;20023;-74
2022/06/20 01:52:42;;;;;;;1999.90;999.90;;;19.70;99.90;;;;;;4954370;28;20019;-79
2022/06/20 01:55:17;;;;;;;1999.90;999.90;;;19.60;99.90;;;;;;4954608;29;20034;-79
2022/06/20 01:57:45;;;;;;;1999.90;999.90;;;19.50;99.90;;;;;;4954524;29;20483;-79
2022/06/20 02:00:17;;;;;;;1999.90;999.90;;;19.50;99.90;;;;;;4953750;29;20030;-79
2022/06/20 02:02:48;;;;;;;1999.90;999.90;;;19.50;99.90;;;;;;4954320;29;20265;-79
2022/06/20 02:05:18;;;;;;;1999.90;999.90;;;19.50;99.90;;;;;;4954509;29;20397;-79
2022/06/20 02:07:45;;;;;;;1999.90;999.90;;;19.50;99.90;;;;;;4954341;29;20027;-74
2022/06/20 02:10:15;;;;;;;1999.90;999.90;;;19.50;99.90;;;;;;4954367;29;20075;-74
2022/06/20 02:12:41;;;;;;;1999.90;999.90;;;19.50;99.90;;;;;;4938358;29;20436;-74
2022/06/20 02:15:08;;;;;;;1999.90;999.90;;;19.50;99.90;;;;;;4954265;29;20061;-73
2022/06/20 02:17:39;;;;;;;1999.90;999.90;;;19.50;99.90;;;;;;4954189;29;20035;-79
2022/06/20 02:20:11;;;;;;;1999.90;999.90;;;19.50;99.90;;;;;;4954214;29;20387;-79
2022/06/20 02:22:38;;;;;;;1999.90;999.90;;;19.50;99.90;;;;;;4953917;29;20039;-73
2022/06/20 02:25:09;;;;;;;1999.90;999.90;;;19.50;99.90;;;;;;4954199;29;20501;-79
2022/06/20 02:27:42;;;;;;;1999.90;999.90;;;19.50;99.90;;;;;;4953603;29;20498;-74
2022/06/20 02:30:10;;;;;;;1999.90;999.90;;;19.50;99.90;;;;;;4954075;29;20023;-74
2022/06/20 02:32:46;;;;;;;1999.90;999.90;;;19.40;99.90;;;;;;4936845;29;20058;-74
2022/06/20 02:35:16;;;;;;;1999.90;999.90;;;19.40;99.90;;;;;;4954269;29;20127;-74
2022/06/20 02:37:43;;;;;;;1999.90;999.90;;;19.40;99.90;;;;;;4953973;29;20059;-74
2022/06/20 02:40:14;;;;;;;1999.90;999.90;;;19.30;99.90;;;;;;4954344;29;20023;-79
2022/06/20 02:43:10;;;;;;;1999.90;999.90;;;19.30;99.90;;;;;;4944362;29;20028;-79
2022/06/20 02:45:39;;;;;;;1999.90;999.90;;;19.30;99.90;;;;;;4948976;29;20109;-79
2022/06/20 02:48:07;;;;;;;1999.90;999.90;;;19.30;99.90;;;;;;4957539;29;20027;-79
2022/06/20 02:50:40;;;;;;;1999.90;999.90;;;19.40;99.90;;;;;;4957061;29;20111;-74
2022/06/20 02:53:09;;;;;;;;;;;19.40;99.90;;;;;;4957591;29;20051;-80
2022/06/20 02:55:37;;;;;;;1999.90;999.90;;;19.40;99.90;;;;;;4957555;29;19910;-79
2022/06/20 02:58:12;;;;;;;1999.90;999.90;;;19.30;99.90;;;;;;4957301;29;20039;-74
2022/06/20 03:01:01;;;;;;;1999.90;999.90;;;19.30;99.90;;;;;;4957298;29;20115;-74
2022/06/20 03:03:34;;;;;;;1999.90;999.90;;;19.30;99.90;;;;;;4947883;29;20039;-74
2022/06/20 03:06:01;;;;;;;1999.90;999.90;;;19.20;99.90;;;;;;4957056;29;20027;-74
2022/06/20 03:08:27;;;;;;;1999.90;999.90;;;19.20;99.90;;;;;;4957173;29;20509;-74
2022/06/20 03:10:55;;;;;;;1999.90;999.90;;;19.10;99.90;;;;;;4957092;29;20027;-79
2022/06/20 03:13:22;;;;;;;1999.90;999.90;;;19.10;99.90;;;;;;4957302;29;20491;-80
2022/06/20 03:15:50;;;;;;;1999.90;999.90;;;19.10;99.90;;;;;;4956776;29;20566;-79
2022/06/20 03:18:18;;;;;;;1999.90;999.90;;;19.00;99.90;;;;;;4961443;29;20031;-79
2022/06/20 03:20:45;;;;;;;1999.90;999.90;;;19.10;99.90;;;;;;4939552;29;20027;-79
2022/06/20 03:23:25;;;;;;;1999.90;999.90;;;19.10;99.90;;;;;;4956894;29;20106;-79
2022/06/20 03:25:53;;;;;;;1999.90;999.90;;;19.00;99.90;;;;;;4957039;29;20019;-74
2022/06/20 03:28:21;;;;;;;1999.90;999.90;;;19.00;99.90;;;;;;4939203;29;20027;-78
2022/06/20 03:30:48;;;;;;;1999.90;999.90;;;18.90;99.90;;;;;;4956892;29;20024;-79
2022/06/20 03:33:16;;;;;;;1999.90;999.90;;;18.70;99.90;;;;;;4956700;29;20106;-74
2022/06/20 03:35:52;;;;;;;1999.90;999.90;;;18.60;99.90;;;;;;4956954;29;20042;-73
2022/06/20 03:38:18;;;;;;;1999.90;999.90;;;18.50;99.90;;;;;;4956677;29;20455;-79
2022/06/20 03:40:44;;;;;;;1999.90;999.90;;;18.50;99.90;;;;;;4956927;29;20114;-74
2022/06/20 03:43:13;;;;;;;1999.90;999.90;;;18.40;99.90;;;;;;4956438;29;20027;-74
2022/06/20 03:45:59;;;;;;;1999.90;999.90;;;18.40;99.90;;;;;;4956669;29;20023;-74
2022/06/20 03:48:37;;;;;;;1999.90;999.90;;;18.30;99.90;;;;;;4956721;29;20435;-74
2022/06/20 03:51:09;;;;;;;1999.90;999.90;;;18.20;99.90;;;;;;4956011;29;20069;-79
2022/06/20 03:53:52;;;;;;;1999.90;999.90;;;18.10;99.90;;;;;;4956172;28;20051;-73
2022/06/20 03:56:41;;;;;;;1999.90;999.90;;;18.10;99.90;;;;;;4943157;29;20019;-79
2022/06/20 03:59:16;;;;;;;1999.90;999.90;;;18.10;99.90;;;;;;4955761;29;20375;-74
2022/06/20 04:02:13;;;;;;;1999.90;999.90;;;18.00;99.90;;;;;;4956087;29;20028;-74
2022/06/20 04:05:05;;;;;;;1999.90;999.90;;;18.00;99.90;;;;;;4939440;29;20407;-79
2022/06/20 04:07:46;;;;;;;1999.90;999.90;;;18.00;99.90;;;;;;4956362;29;20110;-74
2022/06/20 04:13:47;;;;;;;1999.90;999.90;;;17.90;99.90;;;;;;4946938;29;20402;-79
2022/06/20 04:16:23;;;;;;;1999.90;999.90;;;17.90;99.90;;;;;;4955827;29;20034;-79
2022/06/20 04:19:16;;;;;;;1999.90;999.90;;;18.00;99.90;;;;;;4956065;29;20483;-74
2022/06/20 04:21:58;;;;;;;1999.90;999.90;;;18.00;99.90;;;;;;4955687;29;20031;-74
2022/06/20 04:24:39;;;;;;;1999.90;999.90;;;18.10;99.90;;;;;;4956145;29;20038;-74
2022/06/20 04:27:17;;;;;;;1999.90;999.90;;;18.10;99.90;;;;;;4954636;29;20058;-73
2022/06/20 04:29:50;;;;;;;1999.90;999.90;;;18.10;99.90;;;;;;4956192;29;20074;-79
2022/06/20 04:32:20;;;;;;;1999.90;999.90;;;18.10;99.90;;;;;;4955435;29;20023;-74
2022/06/20 04:35:10;;;;;;;1999.90;999.90;;;18.00;99.90;;;;;;4955728;29;20501;-73
2022/06/20 04:37:42;;;;;;;1999.90;999.90;;;18.10;99.90;;;;;;4955417;29;20035;-79
2022/06/20 04:40:20;;;;;;;1999.90;999.90;;;18.10;99.90;;;;;;4955527;29;20292;-74
2022/06/20 04:43:03;;;;;;;1999.90;999.90;;;18.10;99.90;;;;;;4952533;29;20423;-74
2022/06/20 04:45:43;;;;;;;1999.90;999.90;;;18.10;99.90;;;;;;4943653;29;20090;-74
2022/06/20 04:48:12;;;;;;;1999.90;999.90;;;18.10;99.90;;;;;;4954786;29;20184;-73
2022/06/20 04:50:45;;;;;;;1999.90;999.90;;;18.20;99.90;;;;;;4954739;29;20027;-79
2022/06/20 04:53:16;;;;;;;1999.90;999.90;;;18.30;99.90;;;;;;4949981;28;20102;-74
2022/06/20 04:55:49;;;;;;;1999.90;999.90;;;18.30;99.90;;;;;;4935982;29;20079;-79
2022/06/20 04:58:19;;;;;;;1999.90;999.90;;;18.40;99.90;;;;;;4918768;29;20039;-74
2022/06/20 05:00:47;;;;;;;1999.90;999.90;;;18.50;99.90;;;;;;4918310;29;20051;-78
2022/06/20 05:03:16;;;;;;;1999.90;999.90;;;18.60;99.90;;;;;;4935280;29;20023;-74
2022/06/20 05:05:47;;;;;;;1999.90;999.90;;;18.70;99.90;;;;;;4934919;29;20031;-73
2022/06/20 05:08:16;;;;;;;1999.90;999.90;;;18.80;99.90;;;;;;4935765;29;20028;-79
2022/06/20 05:11:08;;;;;;;1999.90;999.90;;;18.80;99.90;;;;;;4930162;29;20108;-78
2022/06/20 05:13:59;;;;;;;1999.90;999.90;;;18.80;99.90;;;;;;4932828;29;20050;-74
2022/06/20 05:16:31;;;;;;;1999.90;999.90;;;18.70;99.90;;;;;;4918521;29;20367;-74
2022/06/20 05:19:02;;;;;;;1999.90;999.90;;;18.70;99.90;;;;;;4935718;29;20475;-79
2022/06/20 05:21:31;;;;;;;1999.90;999.90;;;18.80;99.90;;;;;;4935427;29;20066;-79
2022/06/20 05:24:06;;;;;;;1999.90;999.90;;;18.80;99.90;;;;;;4935552;29;20024;-79
2022/06/20 05:26:35;;;;;;;1999.90;999.90;;;18.90;99.90;;;;;;4935598;29;20024;-79
2022/06/20 05:29:06;;;;;;;1999.90;999.90;;;19.00;99.90;;;;;;4935914;29;20055;-74
2022/06/20 05:31:34;;;;;;;1999.90;999.90;;;19.00;99.90;;;;;;4934887;29;20106;-78
2022/06/20 05:34:11;;;;;;;1999.90;999.90;;;19.10;99.90;;;;;;4935399;29;20039;-78
2022/06/20 05:37:04;;;;;;;1999.90;999.90;;;19.10;99.90;;;;;;4918011;29;20118;-78
2022/06/20 05:40:00;;;;;;;1999.90;999.90;;;19.20;99.90;;;;;;4939724;29;20028;-74
2022/06/20 05:42:26;;;;;;;1999.90;999.90;;;19.30;99.90;;;;;;4929897;29;20040;-74
2022/06/20 05:44:52;;;;;;;1999.90;999.90;;;19.40;99.90;;;;;;4916973;29;20071;-78
2022/06/20 05:47:26;;;;;;;1999.90;999.90;;;19.40;99.90;;;;;;4935177;29;20039;-78
2022/06/20 05:50:15;;;;;;;1999.90;999.90;;;19.40;99.90;;;;;;4934757;29;20076;-78
2022/06/20 05:52:42;;;;;;;1999.90;999.90;;;19.50;99.90;;;;;;4923687;29;20044;-74
2022/06/20 05:55:18;;;;;;;1999.90;999.90;;;19.50;99.90;;;;;;4954201;29;20078;-74
2022/06/20 05:57:48;;;;;;;1999.90;999.90;;;19.60;99.90;;;;;;4954063;29;20459;-74
2022/06/20 06:00:19;;;;;;;1999.90;999.90;;;19.70;99.90;;;;;;4936997;29;20028;-79
2022/06/20 06:02:54;;;;;;;1999.90;999.90;;;19.80;99.90;;;;;;4941264;29;20027;-79
2022/06/20 06:05:31;;;;;;;1999.90;999.90;;;19.90;99.90;;;;;;4934446;29;20031;-74
2022/06/20 06:07:57;;;;;;;1999.90;999.90;;;20.10;99.90;;;;;;4924353;29;20016;-74
2022/06/20 06:10:44;;;;;;;1999.90;999.90;;;20.20;99.90;;;;;;4931224;29;20028;-74
2022/06/20 06:13:46;;;;;;;1999.90;999.90;;;20.40;99.90;;;;;;4925440;29;20028;-79
2022/06/20 06:19:13;;;;;;;1999.90;999.90;;;20.30;99.90;;;;;;4951273;29;20038;-74
2022/06/20 06:21:40;;;;;;;1999.90;999.90;;;20.20;99.90;;;;;;4939010;29;20041;-79
2022/06/20 06:24:07;;;;;;;1999.90;999.90;;;20.20;99.90;;;;;;4946219;29;20023;-75
2022/06/20 06:26:35;;;;;;;1999.90;999.90;;;20.30;99.90;;;;;;4939719;29;20495;-78
2022/06/20 06:29:02;;;;;;;1999.90;999.90;;;20.20;99.90;;;;;;4941421;29;20051;-79
2022/06/20 06:31:36;;;;;;;1999.90;999.90;;;20.20;99.90;;;;;;4934933;29;20027;-76
2022/06/20 06:34:15;;;;;;;1999.90;999.90;;;20.10;99.90;;;;;;4916730;29;20099;-75
2022/06/20 06:37:05;;;;;;;1999.90;999.90;;;20.10;99.90;;;;;;4950110;29;20487;-75
2022/06/20 06:39:43;;;;;;;1999.90;999.90;;;20.00;99.90;;;;;;4945144;29;20020;-76
2022/06/20 06:42:12;;;;;;;1999.90;999.90;;;20.00;99.90;;;;;;4936779;29;20039;-78
2022/06/20 06:45:05;;;;;;;1999.90;999.90;;;20.10;99.90;;;;;;4941795;29;20028;-79
2022/06/20 06:47:34;;;;;;;1999.90;999.90;;;20.10;99.90;;;;;;4936436;29;20575;-79
2022/06/20 06:50:12;;;;;;;1999.90;999.90;;;20.20;99.90;;;;;;4951169;29;20106;-75
2022/06/20 06:52:44;;;;;;;1999.90;999.90;;;20.30;99.90;;;;;;4952262;28;20460;-78
2022/06/20 06:55:37;;;;;;;1999.90;999.90;;;20.40;99.90;;;;;;4942464;29;20102;-79
2022/06/20 06:58:18;;;;;;;1999.90;999.90;;;20.50;99.90;;;;;;4937358;29;20075;-75
2022/06/20 07:01:12;;;;;;;1999.90;999.90;;;20.40;99.90;;;;;;4943876;29;20039;-76
2022/06/20 07:03:58;;;;;;;1999.90;999.90;;;20.40;99.90;;;;;;4927649;29;20047;-78
2022/06/20 07:06:35;;;;;;;1999.90;999.90;;;20.30;99.90;;;;;;4945518;29;20062;-78
2022/06/20 07:09:04;;;;;;;1999.90;999.90;;;20.30;99.90;;;;;;4931853;29;20122;-76
2022/06/20 07:11:33;;;;;;;1999.90;999.90;;;20.30;99.90;;;;;;4937209;29;20459;-78
2022/06/20 07:14:03;;;;;;;1999.90;999.90;;;20.40;99.90;;;;;;4935403;29;20023;-76
2022/06/20 07:16:50;;;;;;;1999.90;999.90;;;20.60;99.90;;;;;;4945240;29;20027;-78
2022/06/20 07:19:16;;;;;;;1999.90;999.90;;;20.80;99.90;;;;;;4941393;29;20031;-78
2022/06/20 07:21:43;;;;;;;1999.90;999.90;;;21.00;99.90;;;;;;4934378;29;20462;-76
2022/06/20 07:24:15;;;;;;;1999.90;999.90;;;21.00;99.90;;;;;;4935045;29;20368;-76
2022/06/20 07:26:50;;;;;;;1999.90;999.90;;;20.80;99.90;;;;;;4943953;29;20514;-76
2022/06/20 07:29:41;;;;;;;1999.90;999.90;;;20.70;99.90;;;;;;4935412;29;20051;-79
2022/06/20 07:32:16;;;;;;;1999.90;999.90;;;20.70;99.90;;;;;;4941910;29;20020;-78
2022/06/20 07:34:53;;;;;;;1999.90;999.90;;;20.70;99.90;;;;;;4943151;29;20083;-76
2022/06/20 07:37:31;;;;;;;1999.90;999.90;;;20.80;99.90;;;;;;4941962;29;20395;-78
2022/06/20 07:40:02;;;;;;;1999.90;999.90;;;20.90;99.90;;;;;;4941769;29;20529;-77
2022/06/20 07:42:45;;;;;;;1999.90;999.90;;;20.90;99.90;;;;;;4935150;29;20439;-76
2022/06/20 07:45:26;;;;;;;1999.90;999.90;;;21.00;99.90;;;;;;4940794;29;20023;-79
2022/06/20 07:47:59;;;;;;;1999.90;999.90;;;21.10;99.90;;;;;;4936157;29;20503;-78
2022/06/20 07:50:34;;;;;;;1999.90;999.90;;;21.30;99.90;;;;;;4942761;29;20035;-78
2022/06/20 07:53:24;;;;;;;1999.90;999.90;;;21.60;99.90;;;;;;4940513;29;20070;-76
2022/06/20 07:55:56;;;;;;;1999.90;999.90;;;22.00;99.90;;;;;;4925307;28;20451;-78
2022/06/20 07:58:37;;;;;;;1999.90;999.90;;;22.30;99.90;;;;;;4952446;29;20027;-78
2022/06/20 08:01:17;;;;;;;1999.90;999.90;;;22.50;99.90;;;;;;4949858;29;20502;-78
2022/06/20 08:03:50;;;;;;;1999.90;999.90;;;23.00;99.90;;;;;;4951826;29;20428;-77
2022/06/20 08:06:21;;;;;;;1999.90;999.90;;;24.30;99.90;;;;;;4942695;28;20023;-77
2022/06/20 08:09:01;;;;;;;1999.90;999.90;;;24.50;99.90;;;;;;4958478;28;20082;-77
2022/06/20 08:11:45;;;;;;;1999.90;999.90;;;24.70;99.90;;;;;;4929547;29;20109;-77
2022/06/20 08:14:35;;;;;;;1999.90;999.90;;;25.00;99.90;;;;;;4959351;28;20046;-77
2022/06/20 08:17:09;;;;;;;1999.90;999.90;;;24.40;99.90;;;;;;4950997;29;20087;-76
2022/06/20 08:19:37;;;;;;;1999.90;999.90;;;24.10;99.90;;;;;;4950681;29;20561;-77
2022/06/20 08:22:19;;;;;;;1999.90;999.90;;;23.90;99.90;;;;;;4958557;28;20035;-77
2022/06/20 08:24:46;;;;;;;1999.90;999.90;;;23.50;99.90;;;;;;4953070;29;20045;-78
2022/06/20 08:27:20;;;;;;;1999.90;999.90;;;23.20;99.90;;;;;;4956786;28;20070;-77
2022/06/20 08:30:12;;;;;;;1999.90;999.90;;;22.90;99.90;;;;;;4951341;29;20034;-77
2022/06/20 08:33:00;;;;;;;1999.90;999.90;;;22.50;99.90;;;;;;4934229;29;20046;-76
2022/06/20 08:35:39;;;;;;;1999.90;999.90;;;22.20;99.90;;;;;;4949600;29;20030;-77
2022/06/20 08:38:15;;;;;;;1999.90;999.90;;;22.20;99.90;;;;;;4935803;29;20050;-77
2022/06/20 08:40:56;;;;;;;1999.90;999.90;;;22.20;99.90;;;;;;4933887;29;20035;-76
2022/06/20 08:43:33;;;;;;;1999.90;999.90;;;22.40;99.90;;;;;;4931531;29;20058;-77
2022/06/20 08:46:34;;;;;;;1999.90;999.90;;;22.60;99.90;;;;;;4953490;28;20019;-77
2022/06/20 08:49:37;;;;;;;1999.90;999.90;;;23.00;99.90;;;;;;4886901;29;20403;-77
2022/06/20 08:52:08;;;;;;;1999.90;999.90;;;23.30;99.90;;;;;;4945689;29;20050;-77
2022/06/20 08:54:52;;;;;;;1999.90;999.90;;;25.10;99.90;;;;;;4956902;28;20059;-77
2022/06/20 08:57:47;;;;;;;1999.90;999.90;;;27.90;98.60;;;;;;4945051;29;20082;-77
2022/06/20 09:00:39;;;;;;;1999.90;999.90;;;30.80;93.40;;;;;;4943737;29;20507;-77
2022/06/20 09:03:38;;;;;;;1999.90;999.90;;;33.20;90.50;;;;;;4933391;29;20059;-78
2022/06/20 09:06:32;;;;;;;1999.90;999.90;;;33.90;87.30;;;;;;4938313;29;20113;-78
2022/06/20 09:09:16;;;;;;;1999.90;999.90;;;33.60;87.80;;;;;;4940613;29;20047;-77
2022/06/20 09:11:48;;;;;;;1999.90;999.90;;;33.40;84.60;;;;;;4939417;29;20435;-78
2022/06/20 09:14:32;;;;;;;1999.90;999.90;;;32.80;83.70;;;;;;4952683;28;20430;-78
2022/06/20 09:17:15;;;;;;;1999.90;999.90;;;34.00;81.90;;;;;;4950192;29;20027;-78
2022/06/20 09:20:05;;;;;;;1999.90;999.90;;;34.40;81.80;;;;;;4952887;28;20114;-78
2022/06/20 09:22:36;;;;;;;1999.90;999.90;;;34.90;81.30;;;;;;4934054;29;20027;-78
2022/06/20 09:25:39;;;;;;;1999.90;999.90;;;35.10;80.10;;;;;;4947148;29;20483;-77
2022/06/20 09:28:15;;;;;;;1999.90;999.90;;;34.70;80.00;;;;;;4929710;29;20072;-79
2022/06/20 09:30:50;;;;;;;1999.90;999.90;;;34.30;80.80;;;;;;4931103;29;20114;-79
2022/06/20 09:33:29;;;;;;;1999.90;999.90;;;35.10;77.70;;;;;;4951479;29;20475;-77
2022/06/20 09:36:20;;;;;;;1999.90;999.90;;;34.80;78.50;;;;;;4940337;29;20038;-77
2022/06/20 09:39:05;;;;;;;1999.90;999.90;;;34.40;78.10;;;;;;4939336;29;20031;-77
2022/06/20 09:41:49;;;;;;;1999.90;999.90;;;33.70;80.20;;;;;;4946391;28;20182;-78
2022/06/20 09:44:49;;;;;;;1999.90;999.90;;;34.50;80.70;;;;;;4951634;29;20106;-78
2022/06/20 09:47:37;;;;;;;1999.90;999.90;;;34.60;79.60;;;;;;4936594;28;20046;-79
2022/06/20 09:50:16;;;;;;;1999.90;999.90;;;33.70;80.60;;;;;;4951789;29;20027;-78
2022/06/20 09:53:26;;;;;;;1999.90;999.90;;;33.30;80.30;;;;;;4952592;28;21524;-79
2022/06/20 09:56:10;;;;;;;1999.90;999.90;;;33.10;81.10;;;;;;4948315;28;20041;-79
2022/06/20 09:58:57;;;;;;;1999.90;999.90;;;32.80;80.80;;;;;;4957331;28;20031;-77
2022/06/20 10:01:32;;;;;;;1999.90;999.90;;;33.70;81.10;;;;;;4957832;29;20391;-79
2022/06/20 10:04:30;;;;;;;1999.90;999.90;;;33.10;80.60;;;;;;4943378;28;20028;-78
2022/06/20 10:07:08;;;;;;;1999.90;999.90;;;33.70;81.20;;;;;;4952958;28;20047;-79
2022/06/20 10:10:05;;;;;;;1999.90;999.90;;;34.60;80.70;;;;;;4958113;28;20061;-79
2022/06/20 10:12:37;;;;;;;1999.90;999.90;;;33.40;79.60;;;;;;4939981;29;20054;-79
2022/06/20 10:15:25;;;;;;;1999.90;999.90;;;33.10;81.50;;;;;;4940389;29;20031;-79
2022/06/20 10:17:59;;;;;;;1999.90;999.90;;;33.40;81.50;;;;;;4949450;29;20031;-80
2022/06/20 10:20:48;;;;;;;1999.90;999.90;;;34.10;79.80;;;;;;4958033;28;20126;-79
2022/06/20 10:23:29;;;;;;;1999.90;999.90;;;34.60;79.70;;;;;;4954103;29;20043;-77
2022/06/20 10:26:13;;;;;;;1999.90;999.90;;;33.90;79.70;;;;;;4943836;29;20546;-77
2022/06/20 10:28:48;;;;;;;1999.90;999.90;;;33.10;81.00;;;;;;4955936;29;20047;-79
2022/06/20 10:31:32;;;;;;;1999.90;999.90;;;33.10;81.70;;;;;;4947188;28;20045;-77
2022/06/20 10:34:03;;;;;;;1999.90;999.90;;;33.90;80.40;;;;;;4953102;28;20110;-79
2022/06/20 10:36:44;;;;;;;1999.90;999.90;;;33.60;79.80;;;;;;4925596;29;20614;-78
2022/06/20 10:39:28;;;;;;;1999.90;999.90;;;33.70;80.40;;;;;;4946513;28;20166;-77
2022/06/20 10:42:30;;;;;;;1999.90;999.90;;;34.20;79.70;;;;;;4951436;28;20035;-79
2022/06/20 10:45:37;;;;;;;1999.90;999.90;;;34.40;80.00;;;;;;4954221;28;20093;-80
2022/06/20 10:48:24;;;;;;;1999.90;999.90;;;34.00;80.50;;;;;;4941472;28;20078;-80
2022/06/20 10:51:18;;;;;;;1999.90;999.90;;;34.10;79.10;;;;;;4950123;29;20027;-77
2022/06/20 10:53:53;;;;;;;1999.90;999.90;;;33.60;80.30;;;;;;4916094;29;20059;-77
2022/06/20 10:56:34;;;;;;;1999.90;999.90;;;33.60;79.90;;;;;;4926184;29;20036;-77
2022/06/20 10:59:40;;;;;;;1999.90;999.90;;;33.40;80.30;;;;;;4946152;29;20483;-80
2022/06/20 11:02:34;;;;;;;1999.90;999.90;;;33.40;81.10;;;;;;4930425;29;20514;-77
2022/06/20 11:05:16;;;;;;;1999.90;999.90;;;33.60;80.50;;;;;;4935924;29;20035;-77
2022/06/20 11:08:00;;;;;;;1999.90;999.90;;;34.50;79.10;;;;;;4936506;29;20562;-78
2022/06/20 11:10:40;;;;;;;1999.90;999.90;;;35.10;79.00;;;;;;4933352;29;20035;-77
2022/06/20 11:13:11;;;;;;;1999.90;999.90;;;35.10;77.70;;;;;;4927427;29;20032;-80
2022/06/20 11:15:43;;;;;;;1999.90;999.90;;;34.80;78.50;;;;;;4932546;29;20107;-77
2022/06/20 11:18:27;;;;;;;;;;;34.70;78.90;;;;;;4936974;29;20034;-77
2022/06/20 11:21:01;;;;;;;1999.90;999.90;;;34.90;78.80;;;;;;4927746;29;19918;-80
2022/06/20 11:23:41;;;;;;;1999.90;999.90;;;34.30;79.40;;;;;;4916035;29;20038;-77
2022/06/20 11:26:37;;;;;;;1999.90;999.90;;;34.40;79.60;;;;;;4944265;29;20551;-80
2022/06/20 11:29:33;;;;;;;1999.90;999.90;;;34.60;79.00;;;;;;4936767;29;20048;-77
2022/06/20 11:32:31;;;;;;;1999.90;999.90;;;34.30;79.00;;;;;;4937641;29;20050;-80
2022/06/20 11:35:02;;;;;;;1999.90;999.90;;;34.10;79.20;;;;;;4897264;29;20039;-81
2022/06/20 11:38:01;;;;;;;1999.90;999.90;;;34.90;78.80;;;;;;4917843;29;20051;-80
2022/06/20 11:40:40;;;;;;;1999.90;999.90;;;35.70;77.60;;;;;;4942026;29;20050;-80
2022/06/20 11:43:17;;;;;;;1999.90;999.90;;;35.40;77.20;;;;;;4946159;29;20094;-80
2022/06/20 11:45:54;;;;;;;1999.90;999.90;;;34.70;77.20;;;;;;4952939;29;20557;-77
2022/06/20 11:48:39;;;;;;;1999.90;999.90;;;34.80;78.20;;;;;;4923490;29;20040;-77
2022/06/20 11:51:20;;;;;;;1999.90;999.90;;;35.30;79.10;;;;;;4923491;29;20042;-81
2022/06/20 11:54:19;;;;;;;1999.90;999.90;;;35.70;76.80;;;;;;4929276;29;20464;-81
2022/06/20 11:57:04;;;;;;;1999.90;999.90;;;35.60;76.30;;;;;;4948207;29;20279;-81
2022/06/20 11:59:46;;;;;;;1999.90;999.90;;;35.40;77.50;;;;;;4939143;29;20038;-77
2022/06/20 12:02:18;;;;;;;1999.90;999.90;;;35.70;78.60;;;;;;4911456;29;20047;-81
2022/06/20 12:05:17;;;;;;;1999.90;999.90;;;35.40;78.50;;;;;;4948301;29;20490;-81
2022/06/20 12:08:03;;;;;;;1999.90;999.90;;;34.90;79.00;;;;;;4942744;29;20741;-81
2022/06/20 12:10:37;;;;;;;1999.90;999.90;;;35.10;79.20;;;;;;4938403;29;20027;-81
2022/06/20 12:13:36;;;;;;;1999.90;999.90;;;35.20;77.30;;;;;;4939766;29;20019;-80
2022/06/20 12:16:15;;;;;;;1999.90;999.90;;;35.80;77.00;;;;;;4933392;29;20020;-77
2022/06/20 12:24:38;;;;;;;1999.90;999.90;;;34.20;77.30;;;;;;4939777;29;20094;-77
2022/06/20 12:27:09;;;;;;;1999.90;999.90;;;34.10;81.20;;;;;;4916434;29;20392;-81
2022/06/20 12:29:36;;;;;;;1999.90;999.90;;;33.70;81.00;;;;;;4944234;29;20038;-81
2022/06/20 12:32:10;;;;;;;1999.90;999.90;;;33.80;82.90;;;;;;4918199;29;20039;-80
2022/06/20 12:35:13;;;;;;;1999.90;999.90;;;33.30;81.90;;;;;;4939238;29;20511;-81
2022/06/20 12:37:57;;;;;;;1999.90;999.90;;;33.00;80.70;;;;;;4924045;29;20031;-77
2022/06/20 12:40:34;;;;;;;1999.90;999.90;;;32.10;82.10;;;;;;4933229;29;20027;-77
2022/06/20 12:43:08;;;;;;;1999.90;999.90;;;32.30;82.70;;;;;;4939071;29;20071;-77
2022/06/20 12:45:55;;;;;;;1999.90;999.90;;;33.70;80.90;;;;;;4934969;29;20027;-80
2022/06/20 12:48:29;;;;;;;1999.90;999.90;;;33.90;81.80;;;;;;4942907;29;20016;-77
2022/06/20 12:51:31;;;;;;;1999.90;999.90;;;32.40;83.40;;;;;;4937137;29;20114;-77
2022/06/20 12:54:05;;;;;;;1999.90;999.90;;;32.40;85.80;;;;;;4931919;29;20059;-77
2022/06/20 12:57:14;;;;;;;1999.90;999.90;;;33.10;84.70;;;;;;4940151;29;20043;-80
2022/06/20 12:59:51;;;;;;;1999.90;999.90;;;33.00;83.70;;;;;;4903070;29;20047;-77
2022/06/20 13:02:56;;;;;;;1999.90;999.90;;;32.60;84.60;;;;;;4939336;29;20095;-79
2022/06/20 13:05:48;;;;;;;1999.90;999.90;;;32.30;84.40;;;;;;4939987;29;20027;-78